Terminal Aerodrome Forecast
Issued by NWS

Home | Current Version | Previous Version | Text Only | Print | Product List | Glossary On
Versions: 1 2 3 4 5 6 7 8 9 10 11 12 13 14 15 16 17 18 19 20 21 22 23 24 25 26 27 28 29 30 31 32 33 34 35 36
000
FTUS41 KCTP 252149 AAA
TAFJST
TAF AMD
KJST 252149Z 2522/2618 34007KT P6SM VCSH SCT040 BKN080
     FM260100 29007KT P6SM SCT040
     FM260700 26006KT 4SM BR OVC250
     FM260900 26005KT 2SM BR OVC004
     FM261100 27007KT P6SM BKN009
     FM261300 30008G15KT P6SM SCT030=

USA.gov is the U.S. government's official web portal to all federal, state and local government web resources and services.